Time;durP1;ratioP1;P1;durP2;ratioP2;P2;SDS_P1;SDS_P2;PMS_P1;PMS_P2;Temp;Humidity;BMP_temperature;BMP_pressure;BME280_temperature;BME280_humidity;BME280_pressure;Samples;Min_cycle;Max_cycle;Signal;HPM_P1;HPM_P2
2021/10/20 00:01:56;;;;;;;16.05;10.65;;;;;;;10.51;100.00;99103.30;2142484;82;21051;-89
2021/10/20 00:04:57;;;;;;;18.55;13.08;;;;;;;10.51;100.00;99103.30;2147931;82;20990;-90
2021/10/20 00:07:58;;;;;;;17.80;12.65;;;;;;;10.48;100.00;99101.00;2131476;83;21605;-85
2021/10/20 00:10:59;;;;;;;23.47;15.13;;;;;;;10.38;100.00;99106.92;2125887;82;20960;-89
2021/10/20 00:14:00;;;;;;;24.92;14.13;;;;;;;10.29;100.00;99103.19;2134348;82;20972;-88
2021/10/20 00:17:01;;;;;;;22.50;14.40;;;;;;;10.20;100.00;99091.90;2162738;82;20973;-84
2021/10/20 00:20:08;;;;;;;20.82;14.10;;;;;;;10.13;100.00;99087.81;2163565;82;21661;-85
2021/10/20 00:23:04;;;;;;;21.45;14.10;;;;;;;10.09;100.00;99085.72;2161773;82;21024;-87
2021/10/20 00:26:05;;;;;;;21.73;13.68;;;;;;;10.02;100.00;99079.02;2127251;82;21000;-88
2021/10/20 00:29:06;;;;;;;17.62;13.05;;;;;;;9.97;100.00;99076.92;2124501;84;21094;-88
2021/10/20 00:32:06;;;;;;;17.87;11.43;;;;;;;9.95;100.00;99075.43;2124371;84;21062;-89
2021/10/20 00:35:07;;;;;;;17.17;11.75;;;;;;;9.91;100.00;99070.22;2141801;82;21032;-89
2021/10/20 00:38:08;;;;;;;20.23;11.97;;;;;;;9.84;100.00;99064.83;2160885;82;21070;-89
2021/10/20 00:41:09;;;;;;;16.85;11.20;;;;;;;9.80;100.00;99058.80;2160734;82;21092;-90
2021/10/20 00:44:10;;;;;;;16.67;11.33;;;;;;;9.78;100.00;99055.52;2160905;82;21066;-89
2021/10/20 00:47:11;;;;;;;16.90;11.40;;;;;;;9.77;100.00;99046.05;2147903;82;21475;-89
2021/10/20 00:50:12;;;;;;;16.17;11.22;;;;;;;9.77;100.00;99040.31;2124350;84;21323;-89
2021/10/20 00:53:12;;;;;;;14.73;11.75;;;;;;;9.78;100.00;99031.98;2125926;84;21065;-89
2021/10/20 00:56:13;;;;;;;17.10;12.20;;;;;;;9.80;100.00;99028.23;2124634;84;21012;-89
2021/10/20 00:59:14;;;;;;;18.52;12.05;;;;;;;9.82;100.00;99032.80;2135844;82;21482;-88
2021/10/20 01:02:15;;;;;;;20.37;12.28;;;;;;;9.88;100.00;99029.53;2158830;82;21060;-90
2021/10/20 01:05:16;;;;;;;17.80;12.88;;;;;;;9.87;100.00;99008.25;2161411;82;21324;-89
2021/10/20 01:08:16;;;;;;;18.07;12.53;;;;;;;9.94;100.00;99022.30;2160749;81;21091;-90
2021/10/20 01:11:17;;;;;;;18.17;12.78;;;;;;;9.96;100.00;99026.87;2161571;82;21019;-86
2021/10/20 01:14:18;;;;;;;23.38;13.30;;;;;;;9.98;100.00;99024.11;2161685;82;21003;-88
2021/10/20 01:17:19;;;;;;;23.07;13.05;;;;;;;9.99;100.00;99015.27;2156611;82;21036;-87
2021/10/20 01:20:19;;;;;;;19.98;12.73;;;;;;;10.02;100.00;99014.11;2125748;84;21020;-89
2021/10/20 01:23:20;;;;;;;21.65;13.95;;;;;;;10.05;100.00;99017.20;2124618;84;21026;-89
2021/10/20 01:26:21;;;;;;;18.37;13.62;;;;;;;10.09;100.00;99012.45;2124450;84;20972;-89
2021/10/20 01:29:22;;;;;;;22.15;14.20;;;;;;;10.15;100.00;99011.30;2124001;84;21174;-88
2021/10/20 01:32:23;;;;;;;20.32;14.05;;;;;;;10.19;100.00;99013.08;2124215;84;21515;-88
2021/10/20 01:35:24;;;;;;;21.57;13.03;;;;;;;10.21;100.00;99014.53;2128249;82;21376;-90
2021/10/20 01:38:25;;;;;;;19.25;12.93;;;;;;;10.26;100.00;99008.83;2124458;84;21049;-90
2021/10/20 01:41:26;;;;;;;19.15;12.20;;;;;;;10.27;100.00;99002.61;2124027;84;21142;-90
2021/10/20 01:44:27;;;;;;;18.87;11.93;;;;;;;10.28;100.00;98999.00;2088079;85;21088;-89
2021/10/20 01:47:30;;;;;;;20.08;12.78;;;;;;;10.30;100.00;98997.52;2099864;84;21063;-90
2021/10/20 01:50:30;;;;;;;16.90;12.28;;;;;;;10.30;100.00;98995.71;2152402;82;21003;-88
2021/10/20 01:53:31;;;;;;;19.15;12.00;;;;;;;10.30;100.00;98976.09;2159288;82;20932;-90
2021/10/20 01:56:32;;;;;;;19.32;12.07;;;;;;;10.29;100.00;98975.77;2151230;82;21034;-90
2021/10/20 01:59:33;;;;;;;18.92;12.15;;;;;;;10.29;100.00;98973.64;2124514;84;21075;-90
2021/10/20 02:02:33;;;;;;;17.23;12.30;;;;;;;10.31;100.00;98969.86;2124616;84;21086;-91
2021/10/20 02:05:34;;;;;;;16.27;11.73;;;;;;;10.36;100.00;98957.58;2124595;84;21027;-90
2021/10/20 02:08:35;;;;;;;19.12;11.48;;;;;;;10.37;100.00;98946.12;2124174;82;21147;-90
2021/10/20 02:11:36;;;;;;;14.75;10.70;;;;;;;10.39;100.00;98946.27;2124617;84;21087;-90
2021/10/20 02:14:37;;;;;;;18.12;11.35;;;;;;;10.38;100.00;98930.23;2088065;85;21571;-90
2021/10/20 02:17:38;;;;;;;16.80;11.18;;;;;;;10.38;100.00;98931.55;2123983;84;21087;-87
2021/10/20 02:20:39;;;;;;;17.42;10.23;;;;;;;10.40;100.00;98945.77;2125538;82;20968;-89
2021/10/20 02:23:40;;;;;;;17.23;10.15;;;;;;;10.41;100.00;98942.16;2124394;84;21264;-89
2021/10/20 02:26:40;;;;;;;14.05;10.00;;;;;;;10.43;100.00;98943.64;2124374;84;21011;-88
2021/10/20 02:29:41;;;;;;;12.07;8.90;;;;;;;10.46;100.00;98947.20;2124617;84;21494;-90
2021/10/20 02:32:42;;;;;;;14.95;9.88;;;;;;;10.51;100.00;98948.83;2124908;84;21123;-87
2021/10/20 02:35:43;;;;;;;11.50;8.78;;;;;;;10.58;100.00;98938.95;2159006;82;21008;-89
2021/10/20 02:38:43;;;;;;;10.60;8.55;;;;;;;10.63;100.00;98938.77;2160837;82;21007;-89
2021/10/20 02:41:44;;;;;;;11.45;7.65;;;;;;;10.71;100.00;98936.58;2160537;82;21059;-88
2021/10/20 02:44:45;;;;;;;8.73;6.97;;;;;;;10.75;100.00;98928.19;2138204;82;21062;-89
2021/10/20 02:47:46;;;;;;;11.45;7.72;;;;;;;10.81;100.00;98926.69;2124527;84;21542;-90
2021/10/20 02:50:47;;;;;;;13.78;7.15;;;;;;;10.88;100.00;98934.16;2124445;84;20988;-90
2021/10/20 02:53:48;;;;;;;10.00;7.62;;;;;;;10.95;100.00;98930.33;2124747;82;21573;-89
2021/10/20 02:56:49;;;;;;;15.03;7.55;;;;;;;11.01;100.00;98929.62;2124702;84;21033;-88
2021/10/20 02:59:51;;;;;;;11.18;7.87;;;;;;;11.09;100.00;98924.32;2124447;84;21057;-88
2021/10/20 03:02:52;;;;;;;8.13;7.25;;;;;;;11.18;100.00;98925.87;2157005;82;21585;-88
2021/10/20 03:05:53;;;;;;;10.08;6.75;;;;;;;11.25;100.00;98918.94;2160870;82;21076;-86
2021/10/20 03:08:53;;;;;;;11.33;7.55;;;;;;;11.34;100.00;98911.31;2161216;80;21040;-90
2021/10/20 03:11:54;;;;;;;11.03;7.47;;;;;;;11.42;100.00;98909.57;2128279;82;21003;-87
2021/10/20 03:14:55;;;;;;;14.95;8.50;;;;;;;11.48;100.00;98911.48;2124688;82;21618;-86
2021/10/20 03:17:56;;;;;;;11.83;7.05;;;;;;;11.51;100.00;98908.49;2134533;82;21016;-86
2021/10/20 03:20:57;;;;;;;12.25;7.08;;;;;;;11.51;100.00;98898.81;2161081;82;20983;-87
2021/10/20 03:23:57;;;;;;;13.85;7.05;;;;;;;11.51;100.00;98896.19;2160956;82;21007;-86
2021/10/20 03:26:58;;;;;;;12.20;6.75;;;;;;;11.52;100.00;98896.54;2148692;82;21083;-84
2021/10/20 03:29:59;;;;;;;12.33;6.70;;;;;;;11.55;100.00;98896.16;2134194;82;20936;-87
2021/10/20 03:33:00;;;;;;;11.65;6.42;;;;;;;11.60;100.00;98894.30;2153328;82;21554;-86
2021/10/20 03:36:01;;;;;;;12.37;7.33;;;;;;;11.64;100.00;98887.21;2124507;82;20971;-85
2021/10/20 03:39:01;;;;;;;11.22;7.90;;;;;;;11.69;100.00;98883.52;2124445;84;21086;-86
2021/10/20 03:42:02;;;;;;;8.50;7.05;;;;;;;11.73;100.00;98883.99;2124313;84;21530;-86
2021/10/20 03:45:03;;;;;;;13.53;7.83;;;;;;;11.77;100.00;98874.75;2124372;84;21040;-87
2021/10/20 03:48:04;;;;;;;7.92;6.53;;;;;;;11.80;100.00;98881.49;2124119;84;21127;-85
2021/10/20 03:51:05;;;;;;;10.68;7.15;;;;;;;11.83;100.00;98875.37;2126422;82;21023;-90
2021/10/20 03:54:05;;;;;;;9.80;6.50;;;;;;;11.85;100.00;98868.13;2124511;84;21050;-87
2021/10/20 03:57:06;;;;;;;9.38;6.87;;;;;;;11.88;100.00;98862.50;2124450;84;21023;-84
2021/10/20 04:00:07;;;;;;;7.72;6.25;;;;;;;11.92;100.00;98862.96;2139424;82;20952;-86
2021/10/20 04:03:08;;;;;;;11.10;6.92;;;;;;;11.98;100.00;98865.33;2160841;82;21075;-86
2021/10/20 04:06:11;;;;;;;12.10;7.42;;;;;;;12.04;100.00;98859.35;2160847;82;21071;-85
2021/10/20 04:09:11;;;;;;;11.33;6.45;;;;;;;12.11;100.00;98859.74;2158000;81;21507;-85
2021/10/20 04:12:12;;;;;;;9.78;8.60;;;;;;;12.14;100.00;98859.36;2124227;84;21075;-85
2021/10/20 04:15:13;;;;;;;13.78;8.28;;;;;;;12.18;100.00;98850.63;2124244;84;21526;-86
2021/10/20 04:18:14;;;;;;;7.67;6.00;;;;;;;12.22;100.00;98848.75;2124571;82;21542;-87
2021/10/20 04:21:15;;;;;;;12.55;7.35;;;;;;;12.26;100.00;98853.14;2124436;82;20972;-86
2021/10/20 04:24:15;;;;;;;13.78;7.37;;;;;;;12.31;100.00;98848.63;2131574;82;21050;-87
2021/10/20 04:27:16;;;;;;;7.28;5.60;;;;;;;12.35;100.00;98845.45;2159625;82;21594;-87
2021/10/20 04:30:17;;;;;;;7.80;5.62;;;;;;;12.38;100.00;98845.58;2158964;82;21036;-86
2021/10/20 04:33:18;;;;;;;10.88;6.80;;;;;;;12.40;100.00;98839.62;2159413;82;21071;-86
2021/10/20 04:36:18;;;;;;;7.80;7.00;;;;;;;12.44;100.00;98842.20;2158634;82;21538;-87
2021/10/20 04:39:19;;;;;;;7.35;6.15;;;;;;;12.47;100.00;98838.69;2158996;82;21009;-87
2021/10/20 04:42:20;;;;;;;9.00;6.72;;;;;;;12.49;100.00;98830.12;2159027;82;21080;-88
2021/10/20 04:45:21;;;;;;;11.40;6.85;;;;;;;12.51;100.00;98825.98;2159050;82;21440;-88
2021/10/20 04:48:22;;;;;;;9.63;6.83;;;;;;;12.52;100.00;98827.11;2159538;82;21003;-87
2021/10/20 04:51:23;;;;;;;8.63;6.55;;;;;;;12.54;100.00;98824.31;2158767;82;21543;-87
2021/10/20 04:54:24;;;;;;;8.83;6.30;;;;;;;12.56;100.00;98816.24;2158507;82;21098;-86
2021/10/20 04:57:25;;;;;;;14.13;6.95;;;;;;;12.62;100.00;98820.25;2158455;82;21039;-87
2021/10/20 05:00:25;;;;;;;9.20;6.47;;;;;;;12.63;100.00;98821.05;2158523;82;22129;-87
2021/10/20 05:03:26;;;;;;;11.88;7.28;;;;;;;12.65;100.00;98822.48;2158873;82;21063;-86
2021/10/20 05:06:27;;;;;;;13.68;7.67;;;;;;;12.68;100.00;98819.97;2158932;82;20977;-87
2021/10/20 05:09:28;;;;;;;10.05;6.90;;;;;;;12.68;100.00;98808.95;2143942;81;21136;-87
2021/10/20 05:12:29;;;;;;;11.03;9.00;;;;;;;12.71;100.00;98802.50;2136875;83;21107;-86
2021/10/20 05:15:30;;;;;;;10.35;7.87;;;;;;;12.73;100.00;98804.46;2133936;83;20978;-86
2021/10/20 05:18:30;;;;;;;8.90;6.80;;;;;;;12.73;100.00;98800.52;2119127;84;21048;-87
2021/10/20 05:21:31;;;;;;;10.23;7.15;;;;;;;12.73;100.00;98799.20;2075970;85;21036;-88
2021/10/20 05:24:32;;;;;;;12.15;6.60;;;;;;;12.73;100.00;98792.13;2117558;84;21540;-86
2021/10/20 05:27:33;;;;;;;8.85;7.25;;;;;;;12.74;100.00;98783.75;2136191;83;21042;-88
2021/10/20 05:30:37;;;;;;;8.20;6.65;;;;;;;12.73;100.00;98797.39;2136298;83;21299;-87
2021/10/20 05:33:39;;;;;;;7.47;6.00;;;;;;;12.73;100.00;98802.64;2135845;83;21124;-87
2021/10/20 05:36:39;;;;;;;9.30;6.87;;;;;;;12.69;100.00;98783.50;2136233;83;21531;-86
2021/10/20 05:39:40;;;;;;;10.70;6.80;;;;;;;12.69;100.00;98783.50;2136112;83;20981;-87
2021/10/20 05:42:41;;;;;;;9.93;6.92;;;;;;;12.73;100.00;98784.75;2136269;83;21013;-87
2021/10/20 05:45:42;;;;;;;10.88;7.70;;;;;;;12.75;100.00;98795.38;2135990;83;21013;-88
2021/10/20 05:48:42;;;;;;;9.65;7.12;;;;;;;12.75;100.00;98784.87;2136278;83;21071;-87
2021/10/20 05:51:43;;;;;;;10.85;6.92;;;;;;;12.77;100.00;98792.55;2136200;83;21025;-88
2021/10/20 05:54:47;;;;;;;11.10;6.60;;;;;;;12.81;100.00;98801.19;2136198;83;21144;-88
2021/10/20 05:57:47;;;;;;;10.43;7.35;;;;;;;12.85;100.00;98796.34;2111711;83;20985;-88
2021/10/20 06:00:48;;;;;;;8.50;6.30;;;;;;;12.91;100.00;98798.72;2136439;83;21096;-88
2021/10/20 06:03:49;;;;;;;8.18;6.53;;;;;;;12.95;100.00;98790.25;2136052;83;21028;-87
2021/10/20 06:06:50;;;;;;;9.38;6.30;;;;;;;13.00;100.00;98791.81;2135898;83;21052;-87
2021/10/20 06:09:51;;;;;;;12.47;7.35;;;;;;;13.05;100.00;98798.59;2150570;83;21088;-87
2021/10/20 06:12:54;;;;;;;8.35;6.05;;;;;;;13.13;100.00;98794.20;2156515;82;20972;-87
2021/10/20 06:15:54;;;;;;;7.87;6.12;;;;;;;13.21;100.00;98795.39;2132979;83;21111;-87
2021/10/20 06:18:58;;;;;;;8.55;6.50;;;;;;;13.29;100.00;98784.72;2174977;82;21011;-87
2021/10/20 06:22:00;;;;;;;7.83;6.05;;;;;;;13.37;100.00;98774.84;2174655;82;21047;-86
2021/10/20 06:25:04;;;;;;;6.22;5.22;;;;;;;13.44;100.00;98768.78;2174954;82;21039;-87
2021/10/20 06:28:04;;;;;;;8.60;5.83;;;;;;;13.53;100.00;98782.07;2151102;82;21027;-88
2021/10/20 06:31:06;;;;;;;7.47;5.92;;;;;;;13.61;100.00;98779.27;2151453;82;21061;-86
2021/10/20 06:34:07;;;;;;;6.40;5.62;;;;;;;13.67;100.00;98774.55;2174917;81;21102;-87
2021/10/20 06:37:08;;;;;;;9.35;5.67;;;;;;;13.74;100.00;98778.52;2174654;82;21045;-87
2021/10/20 06:43:12;;;;;;;8.15;6.53;;;;;;;13.90;100.00;98785.55;2103663;85;21675;-87
2021/10/20 06:46:13;;;;;;;11.88;7.03;;;;;;;13.98;100.00;98788.48;2103483;84;21091;-87
2021/10/20 06:49:14;;;;;;;12.18;6.55;;;;;;;14.05;100.00;98785.36;2080166;85;21059;-86
2021/10/20 06:52:15;;;;;;;5.28;4.78;;;;;;;14.09;100.00;98789.75;2103747;85;21093;-86
2021/10/20 06:55:19;;;;;;;7.35;5.40;;;;;;;14.11;100.00;98796.93;2105469;85;21032;-87
2021/10/20 06:58:22;;;;;;;5.05;4.55;;;;;;;14.15;100.00;98796.82;2103572;85;22289;-88
2021/10/20 07:01:23;;;;;;;7.58;4.90;;;;;;;14.25;100.00;98802.50;2103534;85;21012;-86
2021/10/20 07:04:26;;;;;;;8.70;5.20;;;;;;;14.38;100.00;98805.68;2103814;83;21143;-86
2021/10/20 07:07:27;;;;;;;5.72;4.47;;;;;;;14.51;100.00;98799.92;2103592;85;21650;-86
2021/10/20 07:10:28;;;;;;;6.47;4.97;;;;;;;14.63;100.00;98810.69;2099868;85;21072;-85
2021/10/20 07:13:29;;;;;;;5.28;4.78;;;;;;;14.76;100.00;98806.72;2099113;85;21044;-86
2021/10/20 07:16:30;;;;;;;5.40;4.33;;;;;;;14.86;100.00;98804.98;2100111;85;21087;-83
2021/10/20 07:19:31;;;;;;;6.47;4.40;;;;;;;14.96;100.00;98807.20;2099700;85;21130;-88
2021/10/20 07:22:38;;;;;;;5.03;4.30;;;;;;;15.09;100.00;98801.92;2095433;85;21095;-87
2021/10/20 07:25:40;;;;;;;4.97;4.42;;;;;;;15.21;100.00;98802.89;2099975;85;21119;-87
2021/10/20 07:28:44;;;;;;;5.85;4.20;;;;;;;15.33;100.00;98803.87;2101357;85;21005;-88
2021/10/20 07:31:45;;;;;;;5.20;4.33;;;;;;;15.45;100.00;98793.47;2101645;85;21587;-87
2021/10/20 07:34:46;;;;;;;5.17;4.67;;;;;;;15.55;100.00;98790.41;2101662;85;21119;-86
2021/10/20 07:37:47;;;;;;;9.48;5.25;;;;;;;15.68;100.00;98797.48;2101588;85;21004;-87
2021/10/20 07:40:48;;;;;;;6.60;4.83;;;;;;;15.79;100.00;98794.17;2101857;85;21087;-85
2021/10/20 07:43:49;;;;;;;5.10;4.30;;;;;;;15.85;100.00;98792.02;2101500;85;21567;-87
2021/10/20 07:46:50;;;;;;;4.42;4.05;;;;;;;15.93;100.00;98786.50;2130450;83;21074;-89
2021/10/20 07:49:54;;;;;;;5.40;4.42;;;;;;;15.97;100.00;98782.40;2142821;83;21549;-86
2021/10/20 07:52:58;;;;;;;4.30;4.00;;;;;;;16.00;100.00;98781.16;2142896;83;21063;-87
2021/10/20 07:55:59;;;;;;;6.90;4.85;;;;;;;16.07;100.00;98776.13;2143284;83;21586;-88
2021/10/20 07:59:00;;;;;;;4.55;4.03;;;;;;;16.10;100.00;98781.02;2142247;83;21083;-87
2021/10/20 08:02:01;;;;;;;5.95;4.08;;;;;;;16.16;100.00;98784.61;2141912;83;21118;-85
2021/10/20 08:05:02;;;;;;;5.22;4.50;;;;;;;16.19;100.00;98786.84;2142287;83;21046;-87
2021/10/20 08:08:03;;;;;;;6.67;4.15;;;;;;;16.27;100.00;98779.15;2141863;83;20983;-84
2021/10/20 08:11:04;;;;;;;5.03;4.37;;;;;;;16.31;100.00;98771.92;2141786;83;21054;-85
2021/10/20 08:14:05;;;;;;;5.58;4.12;;;;;;;16.37;100.00;98780.31;2142116;83;21006;-88
2021/10/20 08:17:06;;;;;;;5.45;4.83;;;;;;;16.45;100.00;98783.98;2141900;83;21107;-83
2021/10/20 08:20:09;;;;;;;6.08;4.30;;;;;;;16.55;100.00;98785.34;2141909;83;21022;-83
2021/10/20 08:23:10;;;;;;;5.40;4.30;;;;;;;16.62;100.00;98770.23;2141729;83;21669;-84
2021/10/20 08:26:12;;;;;;;5.30;3.95;;;;;;;16.62;100.00;98766.27;2141440;83;21047;-84
2021/10/20 08:29:15;;;;;;;5.55;5.03;;;;;;;16.69;100.00;98766.55;2141689;83;21535;-81
2021/10/20 08:32:16;;;;;;;4.45;4.05;;;;;;;16.88;100.00;98755.48;2141825;83;21594;-83
2021/10/20 08:35:17;;;;;;;6.65;4.25;;;;;;;17.09;100.00;98764.81;2141693;83;21067;-85
2021/10/20 08:38:18;;;;;;;6.10;4.17;;;;;;;17.34;100.00;98754.97;2141726;83;21066;-82
2021/10/20 08:41:20;;;;;;;5.40;3.90;;;;;;;17.62;100.00;98754.41;2141883;83;21026;-87
2021/10/20 08:44:21;;;;;;;4.95;4.28;;;;;;;17.83;100.00;98754.48;2141505;83;21047;-82
2021/10/20 08:47:23;;;;;;;8.68;5.37;;;;;;;18.01;100.00;98746.97;2141519;83;21221;-86
2021/10/20 08:50:24;;;;;;;5.00;4.45;;;;;;;18.13;100.00;98751.80;2141896;83;20999;-81
2021/10/20 08:53:25;;;;;;;6.25;5.30;;;;;;;18.24;99.30;98754.70;2141703;83;21066;-81
2021/10/20 08:56:26;;;;;;;5.00;4.55;;;;;;;18.31;98.18;98742.96;2141886;83;21075;-79
2021/10/20 08:59:28;;;;;;;6.65;4.97;;;;;;;18.35;98.16;98726.88;2141541;83;21042;-79
2021/10/20 09:02:29;;;;;;;6.33;4.55;;;;;;;18.39;96.99;98725.41;2141747;83;21064;-79
2021/10/20 09:05:30;;;;;;;11.43;6.70;;;;;;;18.41;96.64;98735.77;2114013;83;21082;-79
2021/10/20 09:08:34;;;;;;;7.50;5.20;;;;;;;18.45;96.69;98730.28;2141712;83;21088;-81
2021/10/20 09:11:34;;;;;;;8.88;5.08;;;;;;;18.47;97.23;98729.05;2145232;83;20995;-81
2021/10/20 09:14:41;;;;;;;10.48;6.30;;;;;;;18.57;96.16;98735.09;2145104;83;21550;-80
2021/10/20 09:17:41;;;;;;;8.50;6.60;;;;;;;18.62;96.02;98735.20;2144604;83;21626;-82
2021/10/20 09:20:42;;;;;;;12.75;7.85;;;;;;;18.70;95.14;98728.25;2144886;83;22169;-81
2021/10/20 09:23:43;;;;;;;10.63;7.97;;;;;;;18.78;95.17;98731.59;2118862;83;21063;-84
2021/10/20 09:26:44;;;;;;;10.28;7.45;;;;;;;18.81;94.42;98719.19;2145101;83;21506;-83
2021/10/20 09:29:45;;;;;;;10.90;6.75;;;;;;;18.83;93.74;98719.23;2145334;83;21521;-83
2021/10/20 09:32:48;;;;;;;9.13;5.70;;;;;;;18.82;93.15;98708.34;2145069;82;21085;-87
2021/10/20 09:35:48;;;;;;;7.87;5.62;;;;;;;18.77;92.53;98708.25;2144781;82;21045;-87
2021/10/20 09:38:52;;;;;;;9.30;5.72;;;;;;;18.77;92.57;98710.90;2145137;83;20971;-87
2021/10/20 09:41:52;;;;;;;12.70;7.37;;;;;;;18.75;92.52;98703.18;2144625;82;21035;-87
2021/10/20 09:44:56;;;;;;;13.80;8.25;;;;;;;18.71;92.53;98688.75;2144992;83;21040;-88
2021/10/20 09:47:57;;;;;;;14.23;7.42;;;;;;;18.69;92.76;98686.86;2144988;83;21078;-87
2021/10/20 09:51:07;;;;;;;12.68;7.53;;;;;;;18.69;92.33;98688.70;2145199;83;20983;-87
2021/10/20 09:54:04;;;;;;;8.13;5.53;;;;;;;18.65;91.75;98693.68;2142610;83;21143;-87
2021/10/20 09:57:04;;;;;;;5.72;5.10;;;;;;;18.67;92.13;98698.75;2145002;83;21081;-87
2021/10/20 10:00:05;;;;;;;7.62;4.95;;;;;;;18.67;91.53;98696.91;2144970;83;21447;-87
2021/10/20 10:03:08;;;;;;;11.95;4.40;;;;;;;18.65;90.76;98687.54;2120092;83;21542;-87
2021/10/20 10:06:10;;;;;;;6.95;4.33;;;;;;;18.61;90.33;98679.75;2144980;83;20975;-87
2021/10/20 10:09:11;;;;;;;8.73;6.30;;;;;;;18.59;90.81;98675.20;2144869;83;21047;-87
2021/10/20 10:12:12;;;;;;;6.80;4.80;;;;;;;18.58;90.53;98654.51;2144923;83;22035;-82
2021/10/20 10:15:13;;;;;;;11.03;7.92;;;;;;;18.57;89.68;98670.14;2118686;83;21018;-84
2021/10/20 10:18:15;;;;;;;15.90;7.72;;;;;;;18.57;89.71;98661.38;2145046;83;21122;-83
2021/10/20 10:21:19;;;;;;;6.37;5.47;;;;;;;18.60;89.41;98648.45;2145341;83;21090;-84
2021/10/20 10:24:19;;;;;;;6.70;5.10;;;;;;;18.65;88.52;98648.60;2144514;83;21118;-83
2021/10/20 10:27:23;;;;;;;11.75;7.87;;;;;;;18.66;88.71;98645.43;2145066;83;21095;-85
2021/10/20 10:30:25;;;;;;;21.25;14.28;;;;;;;18.68;88.39;98643.34;2144702;83;21078;-84
2021/10/20 10:33:26;;;;;;;14.45;10.50;;;;;;;18.71;88.34;98636.23;2144744;82;21637;-83
2021/10/20 10:36:28;;;;;;;10.55;8.80;;;;;;;18.74;87.60;98628.64;2144989;82;20956;-84
2021/10/20 10:39:29;;;;;;;15.43;10.60;;;;;;;18.78;87.05;98621.53;2144668;83;21007;-83
2021/10/20 10:42:30;;;;;;;12.25;6.83;;;;;;;18.82;86.21;98624.79;2144653;83;21277;-83
2021/10/20 10:45:32;;;;;;;11.68;7.65;;;;;;;18.89;86.42;98620.69;2144707;83;21119;-84
2021/10/20 10:48:33;;;;;;;8.43;5.95;;;;;;;18.94;85.82;98616.81;2144912;83;21074;-82
2021/10/20 10:51:37;;;;;;;13.72;7.25;;;;;;;18.99;86.01;98616.38;2145570;83;21054;-83
2021/10/20 10:54:41;;;;;;;10.43;5.70;;;;;;;19.07;86.43;98616.53;2144561;83;21099;-83
2021/10/20 10:57:42;;;;;;;16.32;6.83;;;;;;;19.14;85.01;98593.31;2144377;83;21665;-82
2021/10/20 11:00:44;;;;;;;15.32;7.17;;;;;;;19.20;85.45;98591.05;2145018;83;20952;-82
2021/10/20 11:03:47;;;;;;;10.40;7.30;;;;;;;19.23;84.44;98592.41;2144703;83;21055;-83
2021/10/20 11:06:48;;;;;;;9.40;7.72;;;;;;;19.23;83.66;98593.22;2145150;83;21514;-83
2021/10/20 11:09:51;;;;;;;7.40;5.55;;;;;;;19.23;84.00;98587.91;2120112;83;21581;-83
2021/10/20 11:12:53;;;;;;;10.23;5.47;;;;;;;19.24;82.94;98578.91;2144929;82;21069;-84
2021/10/20 11:15:57;;;;;;;10.80;5.78;;;;;;;19.28;83.65;98581.88;2144953;83;21126;-84
2021/10/20 11:18:58;;;;;;;10.20;5.37;;;;;;;19.30;83.46;98581.94;2144922;82;21064;-83
2021/10/20 11:21:59;;;;;;;9.60;5.30;;;;;;;19.30;82.71;98571.32;2144826;83;21034;-84
2021/10/20 11:25:02;;;;;;;9.93;5.58;;;;;;;19.31;81.93;98568.14;2144878;83;21030;-83
2021/10/20 11:28:03;;;;;;;10.60;5.70;;;;;;;19.35;81.79;98568.46;2144929;83;21514;-84
2021/10/20 11:31:06;;;;;;;10.85;5.75;;;;;;;19.38;82.39;98563.47;2051933;87;21071;-84
2021/10/20 11:34:07;;;;;;;9.10;6.08;;;;;;;19.45;81.88;98572.61;2017413;88;21135;-83
2021/10/20 11:37:10;;;;;;;6.60;4.30;;;;;;;19.48;79.74;98565.52;2052611;86;20999;-82
2021/10/20 11:40:11;;;;;;;7.30;4.42;;;;;;;19.50;80.98;98556.25;2052331;87;21026;-83
2021/10/20 11:43:14;;;;;;;9.65;5.87;;;;;;;19.53;80.23;98545.66;2017601;88;21122;-82
2021/10/20 11:46:19;;;;;;;7.65;4.67;;;;;;;19.56;79.97;98539.89;2052490;87;21557;-84
2021/10/20 11:49:21;;;;;;;6.67;4.20;;;;;;;19.62;79.37;98533.62;2017306;87;21087;-84
2021/10/20 11:52:25;;;;;;;7.42;4.92;;;;;;;19.68;79.66;98527.88;2052255;87;21621;-84
2021/10/20 11:55:25;;;;;;;7.35;4.67;;;;;;;19.75;78.61;98528.00;2017423;88;21074;-83
2021/10/20 11:58:35;;;;;;;6.03;4.60;;;;;;;19.82;77.83;98531.80;2052432;87;21132;-84
2021/10/20 12:01:29;;;;;;;5.58;4.60;;;;;;;19.83;77.08;98524.91;2015173;88;21574;-83
2021/10/20 12:04:34;;;;;;;6.42;4.30;;;;;;;19.89;76.54;98521.80;2052387;87;21645;-83
2021/10/20 12:07:36;;;;;;;7.72;4.62;;;;;;;19.94;76.26;98513.92;2017218;88;21107;-82
2021/10/20 12:10:36;;;;;;;6.80;4.33;;;;;;;19.98;76.87;98516.36;2046143;86;21151;-84
2021/10/20 12:13:42;;;;;;;5.35;4.83;;;;;;;20.01;75.11;98519.84;2037888;87;21581;-84
2021/10/20 12:16:44;;;;;;;8.78;5.03;;;;;;;20.07;76.17;98512.23;2038494;87;20972;-84
2021/10/20 12:19:47;;;;;;;8.23;5.72;;;;;;;20.20;76.63;98501.75;2038394;87;21606;-84
2021/10/20 12:22:48;;;;;;;9.75;5.08;;;;;;;20.30;75.43;98499.74;2038363;87;21104;-84
2021/10/20 12:25:52;;;;;;;8.03;4.85;;;;;;;20.36;75.00;98484.14;2016419;87;21091;-84
2021/10/20 12:29:09;;;;;;;7.10;5.42;;;;;;;20.39;75.08;98479.64;2130184;83;21151;-85
2021/10/20 12:32:00;;;;;;;10.93;6.65;;;;;;;20.39;74.86;98471.17;2132100;83;21071;-85
2021/10/20 12:35:03;;;;;;;11.35;6.97;;;;;;;20.38;74.82;98469.53;2139857;83;21040;-85
2021/10/20 12:38:05;;;;;;;10.30;7.42;;;;;;;20.38;74.70;98462.09;2139257;83;21056;-86
2021/10/20 12:41:06;;;;;;;12.63;7.03;;;;;;;20.37;74.50;98451.98;2139284;83;21441;-85
2021/10/20 12:44:08;;;;;;;8.65;6.37;;;;;;;20.33;74.50;98452.73;2139301;83;21041;-84
2021/10/20 12:47:09;;;;;;;7.67;5.65;;;;;;;20.32;74.80;98451.14;2139145;83;21071;-85
2021/10/20 12:50:10;;;;;;;6.33;4.95;;;;;;;20.32;74.40;98439.98;2139292;83;21013;-82
2021/10/20 12:53:13;;;;;;;6.78;5.03;;;;;;;20.31;74.76;98437.05;2138954;83;21100;-87
2021/10/20 12:56:14;;;;;;;6.42;5.10;;;;;;;20.31;74.54;98427.73;2139510;83;21085;-86
2021/10/20 12:59:14;;;;;;;7.50;4.85;;;;;;;20.30;73.90;98422.64;2139299;83;21051;-85
2021/10/20 13:02:17;;;;;;;14.47;8.35;;;;;;;20.27;74.23;98416.51;2138917;83;21483;-85
2021/10/20 13:05:18;;;;;;;12.13;8.18;;;;;;;20.28;74.39;98412.27;2139515;83;21095;-85
2021/10/20 13:08:19;;;;;;;11.38;7.35;;;;;;;20.28;74.69;98406.95;2139431;83;21496;-85
2021/10/20 13:11:20;;;;;;;16.37;10.28;;;;;;;20.27;74.80;98393.39;2138957;82;21659;-85
2021/10/20 13:14:21;;;;;;;13.48;10.60;;;;;;;20.26;74.95;98390.98;2141277;83;21071;-85
2021/10/20 13:17:22;;;;;;;11.38;7.78;;;;;;;20.25;74.62;98382.20;2141777;83;21116;-86
2021/10/20 13:20:32;;;;;;;12.90;8.60;;;;;;;20.26;74.99;98377.16;2141648;83;21530;-85
2021/10/20 13:23:26;;;;;;;8.05;5.85;;;;;;;20.27;75.08;98381.42;2138351;83;20957;-85
2021/10/20 13:26:27;;;;;;;12.05;8.20;;;;;;;20.30;74.84;98369.48;2137123;83;21017;-85
2021/10/20 13:29:35;;;;;;;10.68;8.00;;;;;;;20.30;74.85;98364.16;2136483;83;21665;-86
2021/10/20 13:32:36;;;;;;;7.72;6.33;;;;;;;20.30;74.44;98361.00;2141617;83;22151;-86
2021/10/20 13:35:37;;;;;;;9.48;6.50;;;;;;;20.30;74.91;98362.83;2141756;83;21071;-86
2021/10/20 13:38:40;;;;;;;8.08;4.78;;;;;;;20.29;75.05;98358.05;2136930;83;21497;-86
2021/10/20 13:41:43;;;;;;;9.00;5.05;;;;;;;20.27;75.25;98354.84;2133860;83;21539;-85
2021/10/20 13:44:44;;;;;;;7.05;5.12;;;;;;;20.26;75.55;98358.55;2137598;83;21067;-86
2021/10/20 13:47:49;;;;;;;6.35;5.25;;;;;;;20.25;75.65;98362.80;2136585;83;21060;-85
2021/10/20 13:50:49;;;;;;;25.02;14.47;;;;;;;20.19;75.81;98365.91;2141216;83;21100;-84
2021/10/20 13:53:50;;;;;;;36.63;20.02;;;;;;;20.15;76.11;98355.52;2141461;83;21039;-84
2021/10/20 13:56:51;;;;;;;47.10;25.92;;;;;;;20.12;76.15;98351.52;2141499;83;21491;-85
2021/10/20 13:59:54;;;;;;;39.98;22.17;;;;;;;20.08;76.36;98357.04;2141473;83;20976;-85
2021/10/20 14:02:54;;;;;;;50.10;27.30;;;;;;;20.01;76.42;98351.64;2141384;83;21068;-86